Time;durP1;ratioP1;P1;durP2;ratioP2;P2;SDS_P1;SDS_P2;PMS_P1;PMS_P2;Temp;Humidity;BMP_temperature;BMP_pressure;BME280_temperature;BME280_humidity;BME280_pressure;Samples;Min_cycle;Max_cycle;Signal;HPM_P1;HPM_P2
2023/03/24 05:22:00;;;;;;;24.83;16.23;;;;;;;;;;5148513;22;1291223;-62
2023/03/24 05:24:26;;;;;;;28.48;16.80;;;;;;;;;;5068177;28;20392;-68
2023/03/24 05:26:52;;;;;;;26.00;14.77;;;;;;;;;;5067879;28;20020;-67
2023/03/24 05:29:18;;;;;;;21.88;14.85;;;;;;;;;;5068141;28;20117;-63
2023/03/24 05:31:44;;;;;;;20.30;13.80;;;;;;;;;;5067902;28;20396;-65
2023/03/24 05:34:12;;;;;;;26.35;15.98;;;;;;;;;;5067705;28;20399;-64
2023/03/24 05:36:38;;;;;;;30.20;14.88;;;;;;;;;;5067762;28;20074;-64
2023/03/24 05:39:04;;;;;;;21.08;13.88;;;;;;;;;;5067424;28;20025;-64
2023/03/24 05:41:30;;;;;;;25.55;14.57;;;;;;;;;;5049368;28;20052;-66
2023/03/24 05:43:56;;;;;;;24.27;14.85;;;;;;;;;;5067712;28;20468;-68
2023/03/24 05:46:22;;;;;;;19.92;14.25;;;;;;;;;;5067652;28;20479;-65
2023/03/24 05:48:50;;;;;;;27.02;15.27;;;;;;;;;;5067708;28;20049;-66
2023/03/24 05:51:16;;;;;;;23.42;14.60;;;;;;;;;;5067267;28;20025;-70
2023/03/24 05:53:42;;;;;;;26.73;14.88;;;;;;;;;;5067609;28;20040;-64
2023/03/24 05:56:11;;;;;;;21.13;14.85;;;;;;;;;;5067554;28;20028;-67
2023/03/24 05:58:38;;;;;;;25.70;16.00;;;;;;;;;;5067376;28;20029;-65
2023/03/24 06:01:11;;;;;;;27.63;16.90;;;;;;;;;;5067530;28;20435;-64
2023/03/24 06:03:39;;;;;;;25.40;16.27;;;;;;;;;;5066872;28;20388;-66
2023/03/24 06:06:08;;;;;;;22.52;15.85;;;;;;;;;;5067163;28;20455;-63
2023/03/24 06:08:37;;;;;;;21.85;14.93;;;;;;;;;;5067164;28;20020;-71
2023/03/24 06:11:03;;;;;;;24.73;15.13;;;;;;;;;;5067176;28;20032;-64
2023/03/24 06:13:30;;;;;;;24.42;15.18;;;;;;;;;;5067195;28;20021;-64
2023/03/24 06:15:57;;;;;;;28.00;15.93;;;;;;;;;;5066756;28;20108;-66
2023/03/24 06:18:26;;;;;;;22.83;14.50;;;;;;;;;;5066994;28;20024;-64
2023/03/24 06:20:55;;;;;;;22.67;14.85;;;;;;;;;;5067420;28;20598;-69
2023/03/24 06:23:22;;;;;;;23.33;13.77;;;;;;;;;;5087470;28;20036;-64
2023/03/24 06:25:49;;;;;;;19.10;13.10;;;;;;;;;;5086720;28;20036;-64
2023/03/24 06:28:16;;;;;;;19.55;13.65;;;;;;;;;;5087010;28;20024;-64
2023/03/24 06:30:45;;;;;;;18.50;12.98;;;;;;;;;;5087203;28;20032;-67
2023/03/24 06:33:12;;;;;;;20.25;12.88;;;;;;;;;;5074618;28;20203;-64
2023/03/24 06:35:39;;;;;;;21.33;14.07;;;;;;;;;;5073493;28;20095;-63
2023/03/24 06:38:05;;;;;;;22.73;13.52;;;;;;;;;;5073347;28;20027;-63
2023/03/24 06:40:32;;;;;;;21.35;13.18;;;;;;;;;;5073211;28;20051;-68
2023/03/24 06:42:58;;;;;;;20.23;13.18;;;;;;;;;;5073409;28;20468;-64
2023/03/24 06:45:24;;;;;;;24.13;13.05;;;;;;;;;;5073049;28;20499;-65
2023/03/24 06:47:57;;;;;;;21.42;12.93;;;;;;;;;;5073504;28;20103;-63
2023/03/24 06:50:25;;;;;;;18.85;12.13;;;;;;;;;;5073539;28;20030;-64
2023/03/24 06:52:52;;;;;;;23.58;13.93;;;;;;;;;;5073072;28;20159;-67
2023/03/24 06:55:21;;;;;;;22.10;13.07;;;;;;;;;;5073314;28;20071;-73
2023/03/24 06:57:47;;;;;;;21.55;13.73;;;;;;;;;;5073260;28;20050;-65
2023/03/24 07:00:13;;;;;;;23.17;14.00;;;;;;;;;;5072738;28;20383;-64
2023/03/24 07:02:39;;;;;;;22.85;14.25;;;;;;;;;;5073200;28;20044;-65
2023/03/24 07:05:07;;;;;;;24.95;13.43;;;;;;;;;;5073048;28;20020;-64
2023/03/24 07:07:34;;;;;;;24.20;14.45;;;;;;;;;;5072789;28;20124;-64
2023/03/24 07:10:00;;;;;;;21.05;13.85;;;;;;;;;;5072887;28;20048;-64
2023/03/24 07:12:26;;;;;;;21.02;13.13;;;;;;;;;;5072732;28;20032;-67
2023/03/24 07:14:54;;;;;;;21.08;13.88;;;;;;;;;;5072754;28;20067;-63
2023/03/24 07:17:20;;;;;;;24.42;12.95;;;;;;;;;;5072748;28;20020;-70
2023/03/24 07:19:46;;;;;;;19.35;12.02;;;;;;;;;;5072535;28;20017;-68
2023/03/24 07:22:12;;;;;;;23.20;13.43;;;;;;;;;;5071828;28;20048;-64
2023/03/24 07:24:39;;;;;;;20.23;12.70;;;;;;;;;;5072386;28;20157;-65
2023/03/24 07:27:05;;;;;;;21.58;12.60;;;;;;;;;;5072632;28;20036;-65
2023/03/24 07:29:31;;;;;;;17.85;12.52;;;;;;;;;;5072564;28;20264;-65
2023/03/24 07:31:59;;;;;;;17.08;11.70;;;;;;;;;;5072390;28;20099;-65
2023/03/24 07:34:26;;;;;;;18.13;11.90;;;;;;;;;;5072750;28;20032;-65
2023/03/24 07:36:52;;;;;;;19.33;11.60;;;;;;;;;;5072292;28;20429;-65
2023/03/24 07:39:18;;;;;;;19.00;12.05;;;;;;;;;;5072365;28;20028;-65
2023/03/24 07:41:44;;;;;;;19.27;12.13;;;;;;;;;;5072075;28;20043;-64
2023/03/24 07:44:10;;;;;;;21.35;12.13;;;;;;;;;;5071120;28;20032;-70
2023/03/24 07:46:36;;;;;;;21.35;11.48;;;;;;;;;;5070719;28;20375;-68
2023/03/24 07:49:03;;;;;;;16.65;10.68;;;;;;;;;;5061960;28;20029;-67
2023/03/24 07:51:29;;;;;;;15.95;10.55;;;;;;;;;;5051420;28;20055;-64
2023/03/24 07:53:55;;;;;;;19.23;10.18;;;;;;;;;;5051813;28;20567;-65
2023/03/24 07:56:21;;;;;;;17.23;10.18;;;;;;;;;;5051827;28;20052;-70
2023/03/24 07:58:47;;;;;;;13.30;9.73;;;;;;;;;;5051765;28;20043;-72
2023/03/24 08:01:13;;;;;;;17.60;10.00;;;;;;;;;;5051684;28;20469;-65
2023/03/24 08:03:40;;;;;;;15.27;10.65;;;;;;;;;;5033366;28;20052;-69
2023/03/24 08:06:07;;;;;;;19.50;10.20;;;;;;;;;;5051632;28;20056;-65
2023/03/24 08:08:33;;;;;;;13.85;8.73;;;;;;;;;;5051349;28;20032;-65
2023/03/24 08:11:00;;;;;;;15.77;9.50;;;;;;;;;;5051553;28;20028;-70
2023/03/24 08:13:26;;;;;;;19.30;9.93;;;;;;;;;;5051566;28;20304;-68
2023/03/24 08:15:52;;;;;;;16.05;9.82;;;;;;;;;;5049552;28;20044;-67
2023/03/24 08:18:19;;;;;;;14.75;9.60;;;;;;;;;;5063519;28;20054;-65
2023/03/24 08:20:46;;;;;;;18.15;10.10;;;;;;;;;;5070430;28;20032;-63
2023/03/24 08:23:12;;;;;;;15.38;9.52;;;;;;;;;;5070978;28;20120;-71
2023/03/24 08:25:38;;;;;;;18.25;9.07;;;;;;;;;;5071167;28;20037;-68
2023/03/24 08:28:05;;;;;;;14.38;9.10;;;;;;;;;;5071182;28;20025;-63
2023/03/24 08:30:31;;;;;;;15.40;9.55;;;;;;;;;;5071193;28;20024;-68
2023/03/24 08:32:59;;;;;;;17.23;9.20;;;;;;;;;;5071043;28;20021;-65
2023/03/24 08:35:30;;;;;;;17.30;8.65;;;;;;;;;;5071198;28;20028;-64
2023/03/24 08:37:58;;;;;;;17.45;9.18;;;;;;;;;;5067159;28;20028;-64
2023/03/24 08:40:24;;;;;;;17.17;8.98;;;;;;;;;;5061060;28;20083;-64
2023/03/24 08:42:51;;;;;;;16.55;8.93;;;;;;;;;;5059598;28;20103;-64
2023/03/24 08:45:19;;;;;;;17.75;8.68;;;;;;;;;;5060525;28;20082;-64
2023/03/24 08:47:46;;;;;;;14.75;8.68;;;;;;;;;;5058778;28;20010;-64
2023/03/24 08:50:12;;;;;;;14.43;9.35;;;;;;;;;;5055527;28;20483;-67
2023/03/24 08:52:38;;;;;;;16.17;8.40;;;;;;;;;;5050783;28;20480;-64
2023/03/24 08:55:06;;;;;;;15.95;9.00;;;;;;;;;;5050864;28;20033;-65
2023/03/24 08:57:32;;;;;;;19.17;9.57;;;;;;;;;;5050905;28;20108;-64
2023/03/24 08:59:58;;;;;;;15.18;9.27;;;;;;;;;;5051017;28;20112;-64
2023/03/24 09:02:25;;;;;;;22.00;10.35;;;;;;;;;;5051001;28;20047;-65
2023/03/24 09:04:53;;;;;;;13.52;8.63;;;;;;;;;;5050809;28;20048;-64
2023/03/24 09:07:19;;;;;;;16.13;9.32;;;;;;;;;;5050512;28;20037;-64
2023/03/24 09:09:46;;;;;;;13.77;9.02;;;;;;;;;;5058678;28;20028;-67
2023/03/24 09:12:12;;;;;;;13.80;8.50;;;;;;;;;;5067100;28;20051;-64
2023/03/24 09:14:38;;;;;;;12.95;7.78;;;;;;;;;;5070731;28;20100;-66
2023/03/24 09:17:04;;;;;;;16.08;8.60;;;;;;;;;;5070479;28;20067;-67
2023/03/24 09:19:30;;;;;;;14.98;8.65;;;;;;;;;;5070993;28;20055;-64
2023/03/24 09:21:57;;;;;;;15.85;8.15;;;;;;;;;;5070024;28;20051;-67
2023/03/24 09:24:23;;;;;;;13.35;8.95;;;;;;;;;;5070473;28;20116;-67
2023/03/24 09:26:49;;;;;;;15.32;7.72;;;;;;;;;;5070655;28;20111;-64
2023/03/24 09:29:15;;;;;;;15.50;7.95;;;;;;;;;;5070168;28;20020;-65
2023/03/24 09:31:41;;;;;;;14.30;7.90;;;;;;;;;;5070626;28;20025;-68
2023/03/24 09:34:07;;;;;;;15.70;8.07;;;;;;;;;;5070544;28;20029;-68
2023/03/24 09:36:33;;;;;;;15.15;8.55;;;;;;;;;;5070172;28;20039;-65
2023/03/24 09:38:59;;;;;;;14.80;7.55;;;;;;;;;;5069269;28;20032;-66
2023/03/24 09:41:29;;;;;;;14.52;7.55;;;;;;;;;;5069885;28;20387;-66
2023/03/24 09:43:58;;;;;;;14.20;7.63;;;;;;;;;;5070109;28;20033;-65
2023/03/24 09:46:28;;;;;;;13.65;8.55;;;;;;;;;;5070324;28;20051;-66
2023/03/24 09:48:58;;;;;;;17.50;8.95;;;;;;;;;;5070203;28;20025;-66
2023/03/24 09:51:25;;;;;;;14.57;8.48;;;;;;;;;;5069497;28;20112;-66
2023/03/24 09:53:59;;;;;;;13.30;7.53;;;;;;;;;;5070181;28;20086;-65
2023/03/24 09:56:28;;;;;;;11.02;5.50;;;;;;;;;;5069978;28;20029;-65
2023/03/24 09:59:00;;;;;;;10.27;4.32;;;;;;;;;;5053969;28;20033;-65
2023/03/24 10:01:26;;;;;;;7.00;5.40;;;;;;;;;;5049477;28;20053;-65
2023/03/24 10:03:55;;;;;;;6.35;4.10;;;;;;;;;;5049955;28;20029;-67
2023/03/24 10:06:40;;;;;;;8.43;5.35;;;;;;;;;;5049826;28;20048;-65
2023/03/24 10:09:15;;;;;;;7.75;3.83;;;;;;;;;;5053785;28;20357;-69
2023/03/24 10:11:46;;;;;;;10.48;4.65;;;;;;;;;;5053339;28;20465;-64
2023/03/24 10:14:21;;;;;;;8.43;4.53;;;;;;;;;;5053764;28;20037;-71
2023/03/24 10:16:50;;;;;;;7.20;4.20;;;;;;;;;;5061496;28;20025;-67
2023/03/24 10:19:35;;;;;;;7.55;4.40;;;;;;;;;;5060452;28;20033;-63
2023/03/24 10:22:10;;;;;;;6.50;4.20;;;;;;;;;;5052902;28;20109;-65
2023/03/24 10:24:36;;;;;;;5.60;3.83;;;;;;;;;;5053401;28;20472;-65
2023/03/24 10:27:06;;;;;;;9.95;4.45;;;;;;;;;;5053122;28;20059;-64
2023/03/24 10:29:34;;;;;;;6.22;4.50;;;;;;;;;;5066219;28;20033;-64
2023/03/24 10:32:02;;;;;;;6.60;4.60;;;;;;;;;;5073315;28;20028;-69
2023/03/24 10:34:31;;;;;;;7.60;4.47;;;;;;;;;;5073381;28;20024;-67
2023/03/24 10:36:58;;;;;;;9.43;5.00;;;;;;;;;;5073319;28;20033;-66
2023/03/24 10:39:25;;;;;;;7.88;4.40;;;;;;;;;;5073088;28;20392;-65
2023/03/24 10:41:52;;;;;;;5.85;4.03;;;;;;;;;;5072765;28;20036;-66
2023/03/24 10:44:18;;;;;;;7.15;4.13;;;;;;;;;;5073067;28;20032;-68
2023/03/24 10:46:49;;;;;;;9.32;5.13;;;;;;;;;;5073289;28;20037;-65
2023/03/24 10:49:19;;;;;;;9.02;4.40;;;;;;;;;;5072883;28;20029;-66
2023/03/24 10:51:47;;;;;;;8.13;4.13;;;;;;;;;;5072607;28;20081;-65
2023/03/24 10:54:18;;;;;;;7.32;3.83;;;;;;;;;;5072685;28;20037;-70
2023/03/24 10:56:47;;;;;;;6.47;4.03;;;;;;;;;;5073132;28;20357;-66
2023/03/24 10:59:26;;;;;;;11.05;4.10;;;;;;;;;;5072896;28;20117;-63
2023/03/24 11:02:15;;;;;;;7.75;3.92;;;;;;;;;;5072942;28;20036;-65
2023/03/24 11:04:43;;;;;;;6.50;4.10;;;;;;;;;;4954024;28;20068;-65
2023/03/24 11:07:12;;;;;;;8.38;3.70;;;;;;;;;;4962217;28;20125;-65
2023/03/24 11:09:42;;;;;;;7.25;3.65;;;;;;;;;;4971435;28;20035;-64
2023/03/24 11:12:40;;;;;;;9.60;3.85;;;;;;;;;;4971408;28;20030;-65
2023/03/24 11:15:22;;;;;;;7.00;3.50;;;;;;;;;;4913764;29;20044;-67
2023/03/24 11:17:56;;;;;;;8.77;4.22;;;;;;;;;;4913836;28;20139;-64
2023/03/24 11:20:28;;;;;;;5.38;3.70;;;;;;;;;;4914037;29;20083;-62
2023/03/24 11:22:58;;;;;;;5.68;3.30;;;;;;;;;;4912739;29;20107;-63
2023/03/24 11:25:29;;;;;;;5.60;3.80;;;;;;;;;;4913540;29;20032;-63
2023/03/24 11:27:58;;;;;;;5.63;3.45;;;;;;;;;;4913326;28;20528;-64
2023/03/24 11:30:25;;;;;;;5.18;3.42;;;;;;;;;;4913764;29;20072;-65
2023/03/24 11:32:54;;;;;;;7.03;3.75;;;;;;;;;;4913602;29;20484;-63
2023/03/24 11:35:21;;;;;;;6.15;3.35;;;;;;;;;;4913492;29;20084;-65
2023/03/24 11:37:47;;;;;;;4.80;2.85;;;;;;;;;;4904139;29;20052;-64
2023/03/24 11:40:14;;;;;;;6.65;2.95;;;;;;;;;;4913059;29;20047;-67
2023/03/24 11:42:44;;;;;;;5.82;3.33;;;;;;;;;;4930657;29;20035;-64
2023/03/24 11:45:22;;;;;;;4.82;2.80;;;;;;;;;;4932495;29;20043;-66
2023/03/24 11:47:49;;;;;;;5.03;3.00;;;;;;;;;;4932329;29;20043;-74
2023/03/24 11:50:25;;;;;;;4.28;3.20;;;;;;;;;;4957955;28;20048;-64
2023/03/24 11:53:10;;;;;;;5.20;2.80;;;;;;;;;;5012087;28;20025;-65
2023/03/24 11:55:59;;;;;;;8.30;4.57;;;;;;;;;;5010618;28;20033;-65
2023/03/24 11:58:37;;;;;;;17.35;6.25;;;;;;;;;;5011092;28;20029;-65
2023/03/24 12:01:12;;;;;;;10.65;6.25;;;;;;;;;;5011874;28;20072;-76
2023/03/24 12:03:57;;;;;;;11.07;5.78;;;;;;;;;;5011343;28;20449;-64
2023/03/24 12:06:35;;;;;;;7.65;4.65;;;;;;;;;;5011928;28;20458;-65
2023/03/24 12:09:21;;;;;;;6.97;3.88;;;;;;;;;;5011785;28;20461;-70
2023/03/24 12:11:53;;;;;;;7.03;3.60;;;;;;;;;;5011643;28;20105;-68
2023/03/24 12:14:26;;;;;;;7.40;3.60;;;;;;;;;;5011305;28;20040;-73
2023/03/24 12:16:59;;;;;;;7.05;4.20;;;;;;;;;;5011697;28;20030;-69
2023/03/24 12:19:25;;;;;;;6.93;3.35;;;;;;;;;;5011971;28;20033;-69
2023/03/24 12:21:55;;;;;;;6.53;3.80;;;;;;;;;;5028254;28;20045;-70
2023/03/24 12:24:30;;;;;;;6.50;3.53;;;;;;;;;;5051256;28;20029;-67
2023/03/24 12:27:00;;;;;;;5.47;3.20;;;;;;;;;;5051021;28;20408;-69
2023/03/24 12:29:36;;;;;;;5.32;2.50;;;;;;;;;;5050793;28;20104;-69
2023/03/24 12:32:25;;;;;;;4.95;2.67;;;;;;;;;;5051293;28;20033;-69
2023/03/24 12:34:58;;;;;;;4.10;1.95;;;;;;;;;;4970061;28;20039;-72
2023/03/24 12:37:33;;;;;;;5.32;2.75;;;;;;;;;;4969904;28;20050;-68
2023/03/24 12:40:11;;;;;;;4.50;3.10;;;;;;;;;;4969805;28;20113;-67
2023/03/24 12:42:41;;;;;;;5.63;2.55;;;;;;;;;;4969923;28;20030;-66
2023/03/24 12:45:17;;;;;;;4.70;2.13;;;;;;;;;;4970090;28;20023;-67
2023/03/24 12:47:58;;;;;;;3.00;1.90;;;;;;;;;;4969711;28;20077;-69
2023/03/24 12:50:30;;;;;;;5.45;2.40;;;;;;;;;;4969929;28;20124;-66
2023/03/24 12:53:05;;;;;;;6.45;3.85;;;;;;;;;;4969799;28;20054;-70
2023/03/24 12:55:35;;;;;;;8.57;5.10;;;;;;;;;;4970065;28;20031;-69
2023/03/24 12:58:10;;;;;;;7.75;4.95;;;;;;;;;;4970164;28;20031;-69
2023/03/24 13:00:39;;;;;;;8.82;5.13;;;;;;;;;;4970002;28;20122;-67
2023/03/24 13:03:17;;;;;;;9.15;4.00;;;;;;;;;;4969870;28;20103;-67
2023/03/24 13:05:53;;;;;;;7.70;4.57;;;;;;;;;;4969959;28;20077;-70
2023/03/24 13:08:28;;;;;;;8.02;4.40;;;;;;;;;;4969913;28;20027;-68
2023/03/24 13:11:01;;;;;;;6.22;4.00;;;;;;;;;;4979125;28;20027;-68
2023/03/24 13:13:42;;;;;;;6.65;3.45;;;;;;;;;;5050423;28;20021;-69
2023/03/24 13:16:15;;;;;;;10.85;3.92;;;;;;;;;;5050782;28;20137;-68
2023/03/24 13:18:42;;;;;;;10.55;4.72;;;;;;;;;;5050769;28;20029;-72
2023/03/24 13:21:11;;;;;;;7.93;4.72;;;;;;;;;;5049983;28;20045;-68
2023/03/24 13:23:46;;;;;;;6.35;4.30;;;;;;;;;;5050689;28;20033;-67
2023/03/24 13:26:22;;;;;;;6.75;4.38;;;;;;;;;;5050886;28;20622;-68
2023/03/24 13:29:03;;;;;;;8.80;4.30;;;;;;;;;;5050274;28;20546;-69
2023/03/24 13:31:48;;;;;;;10.88;4.20;;;;;;;;;;5050621;28;20025;-71
2023/03/24 13:34:23;;;;;;;6.38;3.75;;;;;;;;;;5050072;28;20074;-70
2023/03/24 13:36:51;;;;;;;6.10;4.10;;;;;;;;;;5050183;28;20029;-70
2023/03/24 13:39:20;;;;;;;5.32;3.47;;;;;;;;;;5050322;28;20028;-69
2023/03/24 13:41:51;;;;;;;9.77;4.60;;;;;;;;;;5032901;28;20039;-67
2023/03/24 13:44:24;;;;;;;7.07;3.60;;;;;;;;;;5054212;28;20025;-69
2023/03/24 13:47:09;;;;;;;5.55;3.72;;;;;;;;;;5054530;28;20021;-68
2023/03/24 13:49:35;;;;;;;8.18;3.92;;;;;;;;;;5054232;28;20388;-68
2023/03/24 13:52:02;;;;;;;5.90;3.80;;;;;;;;;;5053804;28;20032;-74
2023/03/24 13:54:29;;;;;;;7.35;3.33;;;;;;;;;;5054193;28;20029;-69
2023/03/24 13:57:03;;;;;;;4.80;3.50;;;;;;;;;;5054334;28;20037;-68
2023/03/24 14:00:00;;;;;;;5.93;3.70;;;;;;;;;;5065441;28;20025;-68
2023/03/24 14:02:29;;;;;;;3.75;2.72;;;;;;;;;;5073945;28;20154;-71
2023/03/24 14:05:09;;;;;;;5.47;3.45;;;;;;;;;;5073801;28;20024;-68
2023/03/24 14:07:38;;;;;;;6.43;3.75;;;;;;;;;;5073996;28;20055;-70
2023/03/24 14:10:14;;;;;;;6.28;3.80;;;;;;;;;;5073447;28;20021;-67
2023/03/24 14:12:52;;;;;;;7.43;3.38;;;;;;;;;;5073698;28;20074;-71
2023/03/24 14:15:20;;;;;;;6.68;3.30;;;;;;;;;;5074043;28;20028;-73
2023/03/24 14:17:47;;;;;;;7.28;3.53;;;;;;;;;;5073783;28;20047;-66
2023/03/24 14:20:24;;;;;;;8.18;3.47;;;;;;;;;;5073504;28;20315;-67
2023/03/24 14:22:50;;;;;;;5.93;3.30;;;;;;;;;;5072994;28;20072;-69
2023/03/24 14:25:16;;;;;;;6.57;3.60;;;;;;;;;;5071838;28;20097;-72
2023/03/24 14:27:49;;;;;;;5.47;3.55;;;;;;;;;;5073346;28;20908;-74
2023/03/24 14:30:15;;;;;;;6.40;3.40;;;;;;;;;;5073823;28;20036;-73
2023/03/24 14:32:58;;;;;;;5.60;3.55;;;;;;;;;;5073473;28;20026;-68
2023/03/24 14:35:24;;;;;;;9.13;4.32;;;;;;;;;;5073538;28;20033;-66
2023/03/24 14:37:52;;;;;;;8.90;4.13;;;;;;;;;;5073418;28;20032;-68
2023/03/24 14:40:26;;;;;;;7.15;3.90;;;;;;;;;;5072934;28;20029;-66
2023/03/24 14:42:56;;;;;;;5.97;3.80;;;;;;;;;;5073470;28;20078;-69
2023/03/24 14:45:39;;;;;;;6.35;3.75;;;;;;;;;;5073259;28;20035;-73
2023/03/24 14:48:12;;;;;;;5.47;3.53;;;;;;;;;;5073059;28;20430;-72
2023/03/24 14:50:39;;;;;;;6.65;3.78;;;;;;;;;;5072730;28;20106;-72
2023/03/24 14:53:06;;;;;;;5.38;3.63;;;;;;;;;;5072474;28;20028;-69
2023/03/24 14:55:33;;;;;;;9.38;3.63;;;;;;;;;;5072606;28;20028;-70
2023/03/24 14:58:10;;;;;;;7.70;3.83;;;;;;;;;;5072810;28;20103;-67
2023/03/24 15:00:43;;;;;;;6.82;3.80;;;;;;;;;;5072784;28;20043;-72
2023/03/24 15:03:32;;;;;;;8.20;4.30;;;;;;;;;;5072624;28;20020;-70
2023/03/24 15:06:24;;;;;;;7.45;3.90;;;;;;;;;;5072668;28;20059;-71
2023/03/24 15:08:51;;;;;;;10.88;4.57;;;;;;;;;;5068280;28;20447;-71
2023/03/24 15:11:28;;;;;;;8.63;4.40;;;;;;;;;;5072759;28;20035;-73
2023/03/24 15:13:56;;;;;;;9.55;4.50;;;;;;;;;;5072332;28;20035;-71
2023/03/24 15:16:29;;;;;;;9.52;4.03;;;;;;;;;;5072744;28;20495;-74
2023/03/24 15:18:55;;;;;;;9.10;4.53;;;;;;;;;;5072497;28;20104;-69
2023/03/24 15:21:35;;;;;;;10.43;4.20;;;;;;;;;;5071774;28;20446;-74
2023/03/24 15:24:02;;;;;;;8.57;4.30;;;;;;;;;;5072597;28;20555;-76
2023/03/24 15:26:30;;;;;;;10.38;4.80;;;;;;;;;;5065707;28;20491;-71
2023/03/24 15:28:57;;;;;;;10.50;3.95;;;;;;;;;;5071973;28;20170;-67
2023/03/24 15:31:29;;;;;;;8.95;3.75;;;;;;;;;;5072418;28;20376;-67
2023/03/24 15:34:02;;;;;;;7.25;3.50;;;;;;;;;;5055884;28;20415;-70
2023/03/24 15:36:33;;;;;;;7.18;3.70;;;;;;;;;;5052065;28;20104;-69
2023/03/24 15:38:59;;;;;;;8.38;3.60;;;;;;;;;;5051963;28;20082;-67
2023/03/24 15:41:25;;;;;;;6.07;3.20;;;;;;;;;;5051847;28;20041;-75
2023/03/24 15:43:52;;;;;;;6.22;3.33;;;;;;;;;;5052084;28;20113;-72
2023/03/24 15:46:24;;;;;;;6.82;3.35;;;;;;;;;;5052122;28;20025;-67
2023/03/24 15:48:51;;;;;;;;;;;;;;;;;;5052280;28;20056;-71
2023/03/24 15:51:17;;;;;;;7.60;3.58;;;;;;;;;;5051755;28;20348;-72
2023/03/24 15:53:56;;;;;;;5.88;3.47;;;;;;;;;;5051796;28;20043;-74
2023/03/24 15:56:27;;;;;;;5.78;3.33;;;;;;;;;;5051855;28;20028;-72
2023/03/24 15:58:55;;;;;;;6.70;3.60;;;;;;;;;;5049947;28;20096;-70
2023/03/24 16:01:26;;;;;;;6.13;4.07;;;;;;;;;;5051959;28;20033;-76
2023/03/24 16:03:53;;;;;;;6.65;3.28;;;;;;;;;;5063824;28;20047;-75
2023/03/24 16:06:32;;;;;;;6.97;3.47;;;;;;;;;;5071108;28;20090;-79
2023/03/24 16:09:00;;;;;;;5.00;3.50;;;;;;;;;;5071758;28;20027;-66
2023/03/24 16:11:26;;;;;;;6.03;4.00;;;;;;;;;;5071797;28;20480;-73
2023/03/24 16:13:52;;;;;;;5.90;3.08;;;;;;;;;;5071402;28;20082;-78
2023/03/24 16:16:20;;;;;;;7.72;3.78;;;;;;;;;;5071781;28;20369;-68
2023/03/24 16:18:47;;;;;;;7.10;3.25;;;;;;;;;;5070853;28;20033;-73
2023/03/24 16:21:17;;;;;;;7.10;3.42;;;;;;;;;;5062178;28;20548;-75
2023/03/24 16:23:44;;;;;;;5.80;3.30;;;;;;;;;;5070327;28;20384;-73
2023/03/24 16:26:14;;;;;;;8.35;3.70;;;;;;;;;;5071326;28;20021;-75
2023/03/24 16:28:40;;;;;;;7.30;3.47;;;;;;;;;;5071352;28;20033;-73
2023/03/24 16:31:06;;;;;;;5.65;3.47;;;;;;;;;;5071286;28;20056;-77
2023/03/24 16:33:34;;;;;;;5.75;3.75;;;;;;;;;;5057130;28;20052;-66
2023/03/24 16:36:00;;;;;;;8.25;4.13;;;;;;;;;;5050918;28;20031;-69
2023/03/24 16:38:26;;;;;;;7.63;3.90;;;;;;;;;;5051022;28;20032;-65
2023/03/24 16:40:54;;;;;;;7.93;4.13;;;;;;;;;;5050881;28;20036;-67
2023/03/24 16:43:20;;;;;;;10.88;4.15;;;;;;;;;;5050809;28;20104;-65
2023/03/24 16:45:48;;;;;;;6.25;3.53;;;;;;;;;;5062134;28;20033;-70
2023/03/24 16:48:15;;;;;;;9.20;4.30;;;;;;;;;;5070997;28;20036;-65
2023/03/24 16:50:42;;;;;;;6.18;3.75;;;;;;;;;;5070634;28;20027;-65
2023/03/24 16:53:08;;;;;;;9.40;4.30;;;;;;;;;;5070742;28;20392;-78
2023/03/24 16:55:35;;;;;;;8.68;4.45;;;;;;;;;;5060452;28;20033;-74
2023/03/24 16:58:01;;;;;;;10.57;4.60;;;;;;;;;;5050577;28;20025;-74
2023/03/24 17:00:28;;;;;;;11.90;5.90;;;;;;;;;;5050758;28;20417;-64
2023/03/24 17:02:54;;;;;;;10.77;6.85;;;;;;;;;;5050998;28;20049;-62
2023/03/24 17:05:29;;;;;;;14.73;6.78;;;;;;;;;;5050667;28;20500;-63
2023/03/24 17:07:55;;;;;;;16.17;6.63;;;;;;;;;;5050714;28;20025;-63
2023/03/24 17:10:22;;;;;;;12.98;6.70;;;;;;;;;;5050618;28;20024;-65
2023/03/24 17:12:49;;;;;;;29.02;19.20;;;;;;;;;;5065423;28;20071;-63
2023/03/24 17:15:20;;;;;;;25.25;15.00;;;;;;;;;;5070232;28;20053;-68
2023/03/24 17:17:46;;;;;;;21.35;9.15;;;;;;;;;;5070385;28;20031;-71
2023/03/24 17:20:14;;;;;;;17.83;9.45;;;;;;;;;;5070495;28;20029;-70
2023/03/24 17:22:41;;;;;;;21.08;8.93;;;;;;;;;;5070210;28;20052;-73
2023/03/24 17:25:07;;;;;;;17.27;10.48;;;;;;;;;;5070298;28;20032;-70
2023/03/24 17:27:34;;;;;;;22.38;10.38;;;;;;;;;;5057560;28;20047;-73
2023/03/24 17:30:00;;;;;;;18.33;10.18;;;;;;;;;;5050407;28;20025;-72
2023/03/24 17:32:28;;;;;;;18.25;10.68;;;;;;;;;;5050582;28;20058;-67
2023/03/24 17:34:54;;;;;;;18.27;11.13;;;;;;;;;;5040742;28;20381;-64
2023/03/24 17:37:20;;;;;;;21.00;11.13;;;;;;;;;;5067206;28;20024;-73
2023/03/24 17:39:46;;;;;;;23.50;11.75;;;;;;;;;;5062491;28;20021;-71
2023/03/24 17:42:12;;;;;;;20.35;11.98;;;;;;;;;;5050304;28;20481;-67
2023/03/24 17:44:38;;;;;;;23.40;12.50;;;;;;;;;;5050336;28;20025;-66
2023/03/24 17:47:05;;;;;;;24.02;13.75;;;;;;;;;;5050114;28;20033;-73
2023/03/24 17:49:32;;;;;;;24.30;13.75;;;;;;;;;;5052099;28;20373;-62
2023/03/24 17:51:58;;;;;;;25.70;13.88;;;;;;;;;;5059900;28;20025;-75
2023/03/24 17:54:24;;;;;;;24.70;12.98;;;;;;;;;;5055805;28;20040;-68
2023/03/24 17:56:51;;;;;;;22.30;12.65;;;;;;;;;;5060316;28;20032;-70
2023/03/24 17:59:17;;;;;;;23.77;13.68;;;;;;;;;;5066968;28;20029;-73
2023/03/24 18:01:43;;;;;;;20.52;11.85;;;;;;;;;;5070149;28;20041;-65
2023/03/24 18:04:09;;;;;;;25.00;14.32;;;;;;;;;;5070052;28;20028;-64
2023/03/24 18:06:37;;;;;;;21.55;13.95;;;;;;;;;;5070083;28;20028;-73
2023/03/24 18:09:03;;;;;;;20.13;11.98;;;;;;;;;;5070067;28;20025;-63
2023/03/24 18:11:29;;;;;;;22.40;12.70;;;;;;;;;;5070010;28;20033;-63
2023/03/24 18:13:55;;;;;;;18.23;10.98;;;;;;;;;;5070088;28;20029;-64
2023/03/24 18:16:23;;;;;;;21.17;11.70;;;;;;;;;;5069583;28;20028;-79
2023/03/24 18:18:50;;;;;;;17.30;11.73;;;;;;;;;;5059759;28;20055;-64
2023/03/24 18:21:16;;;;;;;19.23;10.77;;;;;;;;;;5058400;28;20041;-79
2023/03/24 18:23:42;;;;;;;16.73;10.50;;;;;;;;;;5058577;28;20048;-69
2023/03/24 18:26:08;;;;;;;19.83;9.90;;;;;;;;;;5057953;28;20024;-73
2023/03/24 18:28:36;;;;;;;18.70;10.30;;;;;;;;;;5061013;28;20017;-64
2023/03/24 18:31:02;;;;;;;16.35;10.15;;;;;;;;;;5063735;28;20555;-65
2023/03/24 18:33:31;;;;;;;20.05;11.45;;;;;;;;;;5062194;28;20031;-66
2023/03/24 18:35:58;;;;;;;17.90;10.60;;;;;;;;;;5062117;28;20500;-76
2023/03/24 18:38:24;;;;;;;20.17;10.90;;;;;;;;;;5063577;28;20078;-83
2023/03/24 18:41:04;;;;;;;20.30;10.63;;;;;;;;;;5067237;28;20060;-65
2023/03/24 18:43:33;;;;;;;18.67;10.13;;;;;;;;;;5062146;28;20025;-70
2023/03/24 18:45:59;;;;;;;19.25;12.15;;;;;;;;;;5061990;28;20032;-66
2023/03/24 18:48:25;;;;;;;25.42;14.80;;;;;;;;;;5063598;28;20017;-65
2023/03/24 18:50:52;;;;;;;24.90;14.90;;;;;;;;;;5065463;28;20032;-66
2023/03/24 18:53:19;;;;;;;28.05;14.85;;;;;;;;;;5073560;28;20417;-65
2023/03/24 18:55:46;;;;;;;29.50;17.27;;;;;;;;;;5073174;28;20020;-66
2023/03/24 18:58:14;;;;;;;32.00;17.85;;;;;;;;;;5072996;28;20490;-66
2023/03/24 19:00:47;;;;;;;30.40;16.70;;;;;;;;;;5072928;28;20055;-81
2023/03/24 19:03:13;;;;;;;25.77;13.15;;;;;;;;;;5073264;28;20028;-65
2023/03/24 19:05:40;;;;;;;21.45;12.20;;;;;;;;;;5072543;28;20033;-66
2023/03/24 19:08:06;;;;;;;20.25;11.98;;;;;;;;;;5072824;28;20020;-80
2023/03/24 19:10:33;;;;;;;15.38;8.18;;;;;;;;;;5072768;28;20028;-65
2023/03/24 19:13:00;;;;;;;14.45;8.30;;;;;;;;;;5073581;28;20029;-71
2023/03/24 19:15:28;;;;;;;14.43;8.52;;;;;;;;;;5075576;28;20502;-66
2023/03/24 19:17:55;;;;;;;14.50;7.40;;;;;;;;;;5075038;28;20033;-68
2023/03/24 19:20:21;;;;;;;12.02;7.15;;;;;;;;;;5075720;28;20032;-68
2023/03/24 19:22:47;;;;;;;13.80;7.90;;;;;;;;;;5073756;28;20518;-64
2023/03/24 19:25:16;;;;;;;16.63;8.57;;;;;;;;;;5072734;28;20028;-71
2023/03/24 19:27:42;;;;;;;14.13;7.47;;;;;;;;;;5072515;28;20044;-65
2023/03/24 19:30:09;;;;;;;14.00;7.18;;;;;;;;;;5072454;28;20389;-76
2023/03/24 19:32:35;;;;;;;14.73;7.15;;;;;;;;;;5072575;28;20032;-66
2023/03/24 19:35:02;;;;;;;11.30;6.50;;;;;;;;;;5071349;28;20036;-67
2023/03/24 19:37:30;;;;;;;11.05;6.30;;;;;;;;;;5072243;28;20063;-66
2023/03/24 19:39:57;;;;;;;11.80;6.32;;;;;;;;;;5071924;28;20031;-70
2023/03/24 19:42:25;;;;;;;10.02;5.65;;;;;;;;;;5071901;28;20082;-66
2023/03/24 19:44:51;;;;;;;10.50;6.05;;;;;;;;;;5071923;28;20040;-67
2023/03/24 19:47:17;;;;;;;13.93;6.57;;;;;;;;;;5071782;28;20031;-67
2023/03/24 19:49:43;;;;;;;13.60;6.85;;;;;;;;;;5071951;28;20029;-66
2023/03/24 19:52:09;;;;;;;13.13;7.03;;;;;;;;;;5066408;28;20389;-65
2023/03/24 19:54:35;;;;;;;15.68;6.55;;;;;;;;;;5071612;28;20032;-67
2023/03/24 19:57:02;;;;;;;13.63;6.50;;;;;;;;;;5071473;28;20044;-66
2023/03/24 19:59:28;;;;;;;13.98;6.28;;;;;;;;;;5071482;28;20027;-67
2023/03/24 20:01:55;;;;;;;13.05;6.57;;;;;;;;;;5058816;28;20043;-66
2023/03/24 20:04:22;;;;;;;14.70;6.63;;;;;;;;;;5051715;28;20020;-66